Time;durP1;ratioP1;P1;durP2;ratioP2;P2;SDS_P1;SDS_P2;PMS_P1;PMS_P2;Temp;Humidity;BMP_temperature;BMP_pressure;BME280_temperature;BME280_humidity;BME280_pressure;Samples;Min_cycle;Max_cycle;Signal;HPM_P1;HPM_P2
2023/07/27 00:11:33;;;;;;;8.03;5.97;;;;;;;27.89;100.00;99054.31;30883996;28;20420;-78
2023/07/27 00:26:35;;;;;;;8.63;5.53;;;;;;;27.66;100.00;99039.69;30886676;28;20066;-80
2023/07/27 00:41:41;;;;;;;9.53;6.03;;;;;;;27.60;100.00;99033.59;30886909;28;20053;-79
2023/07/27 00:56:43;;;;;;;8.77;6.22;;;;;;;26.76;100.00;98994.66;30876839;28;20082;-77
2023/07/27 01:11:45;;;;;;;13.17;6.43;;;;;;;26.73;100.00;98990.94;30873667;28;20089;-77
2023/07/27 01:27:14;;;;;;;6.97;5.18;;;;;;;26.65;100.00;98962.38;30875812;28;20510;-80
2023/07/27 01:42:18;;;;;;;7.65;5.43;;;;;;;26.44;100.00;98954.22;30869947;28;20519;-79
2023/07/27 01:57:20;;;;;;;8.32;5.38;;;;;;;26.15;100.00;98936.91;30884981;28;20065;-80
2023/07/27 02:12:30;;;;;;;10.00;6.70;;;;;;;25.94;100.00;98902.94;30885799;28;20046;-80
2023/07/27 02:27:32;;;;;;;12.50;6.93;;;;;;;25.96;100.00;98925.38;30864501;28;20082;-78
2023/07/27 02:42:33;;;;;;;12.18;7.93;;;;;;;26.32;100.00;98935.63;30868375;28;20416;-80
2023/07/27 02:57:36;;;;;;;12.35;8.38;;;;;;;26.33;100.00;98926.75;30885878;28;20058;-80
2023/07/27 03:12:38;;;;;;;10.70;7.78;;;;;;;26.94;100.00;98926.69;30884501;28;20057;-78
2023/07/27 03:27:40;;;;;;;10.80;7.90;;;;;;;27.31;100.00;98958.59;30893008;28;20086;-78
2023/07/27 03:42:42;;;;;;;14.00;7.43;;;;;;;27.60;100.00;98994.56;30889455;28;20055;-81
2023/07/27 03:57:46;;;;;;;10.60;8.63;;;;;;;28.23;100.00;98970.13;30888582;28;20138;-80
2023/07/27 04:12:48;;;;;;;13.43;8.32;;;;;;;28.74;100.00;98961.16;30875993;28;20122;-79
2023/07/27 04:27:51;;;;;;;11.30;8.37;;;;;;;29.62;100.00;99015.84;30886339;28;20065;-78
2023/07/27 04:42:53;;;;;;;13.52;8.32;;;;;;;30.11;100.00;99038.03;30885465;28;20058;-79
2023/07/27 04:57:55;;;;;;;12.63;7.95;;;;;;;30.71;100.00;99049.69;30876922;28;20397;-80
2023/07/27 05:12:57;;;;;;;;;;;;;;;31.03;100.00;99062.63;30881590;28;20051;-79
2023/07/27 05:27:59;;;;;;;12.27;7.15;;;;;;;31.40;100.00;99063.34;30874940;28;19930;-81
2023/07/27 05:43:01;;;;;;;10.65;7.05;;;;;;;32.04;100.00;99072.22;30873367;28;20051;-80
2023/07/27 05:58:03;;;;;;;8.13;5.15;;;;;;;32.22;100.00;99066.44;30887150;28;20051;-82
2023/07/27 06:13:24;;;;;;;5.90;5.00;;;;;;;33.00;94.63;99048.00;30879344;28;20046;-83
2023/07/27 06:28:27;;;;;;;8.45;5.38;;;;;;;33.07;87.25;99078.00;30885114;28;20051;-82
2023/07/27 06:43:29;;;;;;;6.20;4.88;;;;;;;33.49;84.74;99080.13;30909229;28;20050;-82
2023/07/27 06:58:34;;;;;;;7.30;4.45;;;;;;;33.99;80.15;99079.91;30894631;28;20086;-81
2023/07/27 07:13:36;;;;;;;6.00;4.30;;;;;;;34.21;77.83;99075.69;30897008;28;20078;-83
2023/07/27 07:28:39;;;;;;;7.20;4.57;;;;;;;34.80;75.17;99051.19;30895549;28;20142;-81
2023/07/27 07:43:41;;;;;;;7.22;4.18;;;;;;;34.89;74.81;99074.97;30901420;28;20512;-84
2023/07/27 07:58:46;;;;;;;7.85;3.97;;;;;;;35.27;71.77;99068.03;30898412;28;20058;-83
2023/07/27 08:13:52;;;;;;;4.93;4.25;;;;;;;35.57;69.72;99060.63;30892384;28;20420;-81
2023/07/27 08:28:54;;;;;;;9.80;4.57;;;;;;;36.40;67.17;99076.59;30892031;28;20055;-83
2023/07/27 08:43:58;;;;;;;6.00;4.30;;;;;;;37.21;66.64;99066.03;30891761;28;20042;-83
2023/07/27 08:59:01;;;;;;;5.38;3.28;;;;;;;37.53;63.89;99032.97;30887662;28;20054;-80
2023/07/27 09:14:03;;;;;;;5.60;3.63;;;;;;;38.64;60.96;98994.94;30885664;28;20058;-83
2023/07/27 09:29:08;;;;;;;8.00;3.05;;;;;;;38.55;55.42;98951.31;30876622;28;20065;-81
2023/07/27 09:44:18;;;;;;;6.93;3.03;;;;;;;39.10;52.04;98941.59;30875220;28;20053;-82
2023/07/27 09:59:23;;;;;;;4.97;2.83;;;;;;;38.92;50.35;98864.97;30879121;28;20134;-84
2023/07/27 10:14:26;;;;;;;7.22;3.10;;;;;;;39.81;47.48;98891.19;30903685;28;20051;-84
2023/07/27 10:29:31;;;;;;;3.97;2.70;;;;;;;40.23;43.34;98903.38;30897509;28;20074;-81
2023/07/27 10:44:42;;;;;;;7.05;2.78;;;;;;;40.42;38.60;98909.75;30898475;28;20512;-82
2023/07/27 10:59:49;;;;;;;6.97;3.05;;;;;;;41.69;40.27;98935.28;30897531;28;20405;-81
2023/07/27 11:14:52;;;;;;;7.03;2.83;;;;;;;41.14;40.09;98930.69;30886431;28;20149;-82
2023/07/27 11:29:53;;;;;;;4.38;2.15;;;;;;;40.30;39.20;98917.81;30885784;28;20384;-81
2023/07/27 11:44:57;;;;;;;8.88;3.78;;;;;;;40.10;39.94;98904.34;30888018;28;20514;-80
2023/07/27 12:00:15;;;;;;;9.45;2.95;;;;;;;40.40;40.00;98892.59;30878428;28;20049;-81
2023/07/27 12:15:31;;;;;;;7.32;3.30;;;;;;;39.62;40.00;98879.78;30880872;28;20484;-83
2023/07/27 12:30:33;;;;;;;10.43;3.33;;;;;;;39.01;40.92;98883.78;30878916;28;20074;-80
2023/07/27 12:45:36;;;;;;;6.45;3.10;;;;;;;39.02;41.33;98879.56;30880667;28;20054;-81
2023/07/27 13:00:39;;;;;;;7.28;2.33;;;;;;;38.58;42.38;98860.69;30879869;28;20419;-81
2023/07/27 13:15:41;;;;;;;5.25;3.42;;;;;;;38.61;42.53;98880.00;30881445;28;20047;-80
2023/07/27 13:30:49;;;;;;;8.32;3.30;;;;;;;38.42;42.93;98877.72;30867768;28;20074;-81
2023/07/27 13:45:51;;;;;;;9.05;2.95;;;;;;;37.96;42.96;98885.63;30867336;28;20078;-80
2023/07/27 14:00:54;;;;;;;4.70;2.72;;;;;;;37.62;42.83;98867.03;30867710;28;20069;-81
2023/07/27 14:15:58;;;;;;;14.70;7.45;;;;;;;36.99;45.23;98872.53;30870955;28;20065;-80
2023/07/27 14:31:00;;;;;;;17.52;6.07;;;;;;;36.81;48.30;98856.16;30866421;28;20130;-76
2023/07/27 14:46:14;;;;;;;13.30;6.07;;;;;;;36.60;50.14;98814.09;30863297;28;20065;-82
2023/07/27 15:01:17;;;;;;;11.30;5.75;;;;;;;36.64;51.10;98796.59;30893881;28;20047;-80
2023/07/27 15:16:20;;;;;;;23.25;12.25;;;;;;;36.14;52.97;98799.06;30887407;28;20046;-77
2023/07/27 15:31:22;;;;;;;15.75;8.27;;;;;;;35.73;54.21;98813.16;30877473;28;20544;-76
2023/07/27 15:46:24;;;;;;;13.35;6.47;;;;;;;35.52;55.68;98848.03;30883728;28;20050;-78
2023/07/27 16:01:34;;;;;;;8.02;5.20;;;;;;;35.24;57.02;98945.16;30879758;28;20114;-78
2023/07/27 16:16:38;;;;;;;11.07;6.50;;;;;;;34.54;59.58;98838.97;30878375;28;20141;-79
2023/07/27 16:31:43;;;;;;;14.82;7.18;;;;;;;34.22;63.97;98772.28;30892555;28;20055;-79
2023/07/27 16:46:47;;;;;;;13.90;7.63;;;;;;;33.99;68.34;98764.63;30873580;28;20066;-76
2023/07/27 17:01:51;;;;;;;15.98;7.57;;;;;;;33.60;72.19;98836.75;30874104;28;20567;-76
2023/07/27 17:16:53;;;;;;;11.32;7.10;;;;;;;33.50;72.47;98865.00;30872484;28;20378;-77
2023/07/27 17:32:00;;;;;;;15.18;7.20;;;;;;;33.43;71.88;98838.56;30871962;28;20066;-78
2023/07/27 17:47:02;;;;;;;15.32;6.35;;;;;;;33.33;70.30;98826.69;30865984;28;20054;-78
2023/07/27 18:02:05;;;;;;;11.48;6.28;;;;;;;33.28;69.69;98813.00;30865913;28;20437;-79
2023/07/27 18:17:07;;;;;;;12.98;5.53;;;;;;;33.08;71.85;98820.84;30864965;28;20134;-80
2023/07/27 18:32:10;;;;;;;11.30;5.15;;;;;;;32.36;73.13;98843.53;30884147;28;20057;-79
2023/07/27 18:47:12;;;;;;;6.97;4.18;;;;;;;31.06;86.80;98842.88;30882052;28;20047;-77
2023/07/27 19:02:14;;;;;;;9.40;4.82;;;;;;;30.29;100.00;98800.06;30888276;28;20054;-77
2023/07/27 19:17:21;;;;;;;8.70;4.80;;;;;;;29.83;100.00;98767.22;30886297;28;20070;-79
2023/07/27 19:32:23;;;;;;;7.72;5.00;;;;;;;29.57;100.00;98781.97;30879565;28;20054;-77
2023/07/27 19:47:26;;;;;;;6.22;3.50;;;;;;;29.31;100.00;98747.13;30874980;28;20081;-77
2023/07/27 20:02:28;;;;;;;8.40;4.20;;;;;;;29.19;100.00;98713.38;30871255;28;20052;-77
2023/07/27 20:17:31;;;;;;;9.68;4.88;;;;;;;29.14;100.00;98714.38;30874112;28;20059;-77
2023/07/27 20:32:33;;;;;;;9.13;4.88;;;;;;;28.97;100.00;98709.59;30873389;28;20050;-78
2023/07/27 20:47:35;;;;;;;9.93;4.40;;;;;;;29.14;100.00;98689.25;30877464;28;20121;-77
2023/07/27 21:02:38;;;;;;;14.75;3.50;;;;;;;26.51;100.00;98808.03;30867259;28;20337;-80
2023/07/27 21:17:41;;;;;;;4.53;1.30;;;;;;;24.56;100.00;98777.97;30870566;28;20886;-79
2023/07/27 21:32:43;;;;;;;5.63;1.33;;;;;;;24.13;100.00;98705.19;30868432;28;20058;-78
2023/07/27 21:47:45;;;;;;;7.40;2.78;;;;;;;23.94;100.00;98782.28;30861318;28;20138;-78
2023/07/27 22:02:47;;;;;;;20.35;10.90;;;;;;;24.68;100.00;98696.63;30858296;28;20055;-77
2023/07/27 22:17:49;;;;;;;7.35;4.20;;;;;;;24.80;100.00;98611.75;30861478;28;20105;-77
2023/07/27 22:32:52;;;;;;;8.27;3.78;;;;;;;24.52;100.00;98605.59;30808026;28;1548758;-78
2023/07/27 22:47:54;;;;;;;7.07;3.87;;;;;;;24.54;100.00;98586.38;30864988;28;20054;-78
2023/07/27 23:02:57;;;;;;;7.18;3.60;;;;;;;24.89;100.00;98509.81;30863994;28;20054;-79
2023/07/27 23:17:59;;;;;;;7.45;4.18;;;;;;;25.12;100.00;98560.56;30881502;28;20105;-77
2023/07/27 23:33:01;;;;;;;11.38;4.78;;;;;;;25.23;100.00;98537.97;30881631;28;20054;-78
2023/07/27 23:48:03;;;;;;;11.35;4.97;;;;;;;25.28;100.00;98495.38;30869641;28;20050;-77
